sensor_id;sensor_type;location;lat;lon;timestamp;temperature;humidity
14188;DHT22;7175;51.978;5.330;2023-02-10T00:01:33;1.30;99.90
14188;DHT22;7175;51.978;5.330;2023-02-10T00:04:02;1.20;99.90
14188;DHT22;7175;51.978;5.330;2023-02-10T00:06:31;1.20;99.90
14188;DHT22;7175;51.978;5.330;2023-02-10T00:09:00;1.20;99.90
14188;DHT22;7175;51.978;5.330;2023-02-10T00:11:30;1.20;99.90
14188;DHT22;7175;51.978;5.330;2023-02-10T00:14:17;1.10;99.90
14188;DHT22;7175;51.978;5.330;2023-02-10T00:16:49;1.00;99.90
14188;DHT22;7175;51.978;5.330;2023-02-10T00:19:17;1.00;99.90
14188;DHT22;7175;51.978;5.330;2023-02-10T00:21:46;1.00;99.90
14188;DHT22;7175;51.978;5.330;2023-02-10T00:24:14;1.10;99.90
14188;DHT22;7175;51.978;5.330;2023-02-10T00:26:44;1.20;99.90
14188;DHT22;7175;51.978;5.330;2023-02-10T00:29:12;1.20;99.90
14188;DHT22;7175;51.978;5.330;2023-02-10T00:31:41;1.10;99.90
14188;DHT22;7175;51.978;5.330;2023-02-10T00:34:10;1.10;99.90
14188;DHT22;7175;51.978;5.330;2023-02-10T00:36:39;1.00;99.90
14188;DHT22;7175;51.978;5.330;2023-02-10T00:39:08;1.10;99.90
14188;DHT22;7175;51.978;5.330;2023-02-10T00:41:39;1.10;99.90
14188;DHT22;7175;51.978;5.330;2023-02-10T00:44:09;1.10;99.90
14188;DHT22;7175;51.978;5.330;2023-02-10T00:46:37;1.10;99.90
14188;DHT22;7175;51.978;5.330;2023-02-10T00:49:06;1.00;99.90
14188;DHT22;7175;51.978;5.330;2023-02-10T00:51:34;1.00;99.90
14188;DHT22;7175;51.978;5.330;2023-02-10T00:54:03;1.00;99.90
14188;DHT22;7175;51.978;5.330;2023-02-10T00:56:31;1.00;99.90
14188;DHT22;7175;51.978;5.330;2023-02-10T00:58:59;0.90;99.90
14188;DHT22;7175;51.978;5.330;2023-02-10T01:01:29;0.90;99.90
14188;DHT22;7175;51.978;5.330;2023-02-10T01:03:57;0.90;99.90
14188;DHT22;7175;51.978;5.330;2023-02-10T01:06:25;0.90;99.90
14188;DHT22;7175;51.978;5.330;2023-02-10T01:08:53;0.90;99.90
14188;DHT22;7175;51.978;5.330;2023-02-10T01:11:21;0.90;99.90
14188;DHT22;7175;51.978;5.330;2023-02-10T01:13:51;0.90;99.90
14188;DHT22;7175;51.978;5.330;2023-02-10T01:16:20;1.00;99.90
14188;DHT22;7175;51.978;5.330;2023-02-10T01:18:50;0.90;99.90
14188;DHT22;7175;51.978;5.330;2023-02-10T01:21:19;0.80;99.90
14188;DHT22;7175;51.978;5.330;2023-02-10T01:23:47;0.80;99.90
14188;DHT22;7175;51.978;5.330;2023-02-10T01:26:16;0.80;99.90
14188;DHT22;7175;51.978;5.330;2023-02-10T01:28:44;0.70;99.90
14188;DHT22;7175;51.978;5.330;2023-02-10T01:31:14;0.80;99.90
14188;DHT22;7175;51.978;5.330;2023-02-10T01:33:43;0.90;99.90
14188;DHT22;7175;51.978;5.330;2023-02-10T01:36:15;0.90;99.90
14188;DHT22;7175;51.978;5.330;2023-02-10T01:38:44;0.90;99.90
14188;DHT22;7175;51.978;5.330;2023-02-10T01:41:14;0.80;99.90
14188;DHT22;7175;51.978;5.330;2023-02-10T01:43:58;0.70;99.90
14188;DHT22;7175;51.978;5.330;2023-02-10T01:46:27;0.60;99.90
14188;DHT22;7175;51.978;5.330;2023-02-10T01:48:57;0.60;99.90
14188;DHT22;7175;51.978;5.330;2023-02-10T01:51:33;0.60;99.90
14188;DHT22;7175;51.978;5.330;2023-02-10T01:54:04;0.70;99.90
14188;DHT22;7175;51.978;5.330;2023-02-10T01:56:33;0.60;99.90
14188;DHT22;7175;51.978;5.330;2023-02-10T01:59:01;0.60;99.90
14188;DHT22;7175;51.978;5.330;2023-02-10T02:01:30;0.50;99.90
14188;DHT22;7175;51.978;5.330;2023-02-10T02:04:00;0.40;99.90
14188;DHT22;7175;51.978;5.330;2023-02-10T02:06:31;0.30;99.90
14188;DHT22;7175;51.978;5.330;2023-02-10T02:09:00;0.20;99.90
14188;DHT22;7175;51.978;5.330;2023-02-10T02:11:35;0.20;99.90
14188;DHT22;7175;51.978;5.330;2023-02-10T02:14:24;0.20;99.90
14188;DHT22;7175;51.978;5.330;2023-02-10T02:17:02;0.20;99.90
14188;DHT22;7175;51.978;5.330;2023-02-10T02:19:50;0.30;99.90
14188;DHT22;7175;51.978;5.330;2023-02-10T02:23:04;0.20;99.90
14188;DHT22;7175;51.978;5.330;2023-02-10T02:25:51;0.20;99.90
14188;DHT22;7175;51.978;5.330;2023-02-10T02:28:25;0.10;99.90
14188;DHT22;7175;51.978;5.330;2023-02-10T02:31:28;0.10;99.90
14188;DHT22;7175;51.978;5.330;2023-02-10T02:34:00;0.10;99.90
14188;DHT22;7175;51.978;5.330;2023-02-10T02:36:31;0.10;99.90
14188;DHT22;7175;51.978;5.330;2023-02-10T02:39:03;0.10;99.90
14188;DHT22;7175;51.978;5.330;2023-02-10T02:41:33;0.00;99.90
14188;DHT22;7175;51.978;5.330;2023-02-10T02:44:03;0.00;99.90
14188;DHT22;7175;51.978;5.330;2023-02-10T02:46:41;0.00;99.90
14188;DHT22;7175;51.978;5.330;2023-02-10T02:49:19;0.00;99.90
14188;DHT22;7175;51.978;5.330;2023-02-10T02:51:57;-0.10;99.90
14188;DHT22;7175;51.978;5.330;2023-02-10T02:54:34;-0.10;99.90
14188;DHT22;7175;51.978;5.330;2023-02-10T02:57:10;-0.10;99.90
14188;DHT22;7175;51.978;5.330;2023-02-10T02:59:42;-0.10;99.90
14188;DHT22;7175;51.978;5.330;2023-02-10T03:02:15;-0.10;99.90
14188;DHT22;7175;51.978;5.330;2023-02-10T03:04:46;-0.10;99.90
14188;DHT22;7175;51.978;5.330;2023-02-10T03:07:15;-0.20;99.90
14188;DHT22;7175;51.978;5.330;2023-02-10T03:09:43;-0.20;99.90
14188;DHT22;7175;51.978;5.330;2023-02-10T03:12:11;-0.20;99.90
14188;DHT22;7175;51.978;5.330;2023-02-10T03:14:40;-0.20;99.90
14188;DHT22;7175;51.978;5.330;2023-02-10T03:17:08;-0.20;99.90
14188;DHT22;7175;51.978;5.330;2023-02-10T03:19:38;-0.20;99.90
14188;DHT22;7175;51.978;5.330;2023-02-10T03:22:06;-0.20;99.90
14188;DHT22;7175;51.978;5.330;2023-02-10T03:24:34;-0.20;99.90
14188;DHT22;7175;51.978;5.330;2023-02-10T03:27:03;-0.10;99.90
14188;DHT22;7175;51.978;5.330;2023-02-10T03:29:32;0.00;99.90
14188;DHT22;7175;51.978;5.330;2023-02-10T03:32:00;0.00;99.90
14188;DHT22;7175;51.978;5.330;2023-02-10T03:34:30;0.00;99.90
14188;DHT22;7175;51.978;5.330;2023-02-10T03:37:00;-0.10;99.90
14188;DHT22;7175;51.978;5.330;2023-02-10T03:39:28;0.00;99.90
14188;DHT22;7175;51.978;5.330;2023-02-10T03:41:56;-0.10;99.90
14188;DHT22;7175;51.978;5.330;2023-02-10T03:44:24;0.00;99.90
14188;DHT22;7175;51.978;5.330;2023-02-10T03:46:52;-0.10;99.90
14188;DHT22;7175;51.978;5.330;2023-02-10T03:49:21;0.00;99.90
14188;DHT22;7175;51.978;5.330;2023-02-10T03:51:49;0.00;99.90
14188;DHT22;7175;51.978;5.330;2023-02-10T03:54:18;0.00;99.90
14188;DHT22;7175;51.978;5.330;2023-02-10T03:56:46;0.00;99.90
14188;DHT22;7175;51.978;5.330;2023-02-10T03:59:15;0.10;99.90
14188;DHT22;7175;51.978;5.330;2023-02-10T04:01:43;0.00;99.90
14188;DHT22;7175;51.978;5.330;2023-02-10T04:04:11;0.00;99.90
14188;DHT22;7175;51.978;5.330;2023-02-10T04:06:39;0.10;99.90
14188;DHT22;7175;51.978;5.330;2023-02-10T04:09:07;0.10;99.90
14188;DHT22;7175;51.978;5.330;2023-02-10T04:11:37;0.10;99.90
14188;DHT22;7175;51.978;5.330;2023-02-10T04:14:05;0.10;99.90
14188;DHT22;7175;51.978;5.330;2023-02-10T04:16:33;0.10;99.90
14188;DHT22;7175;51.978;5.330;2023-02-10T04:19:02;0.00;99.90
14188;DHT22;7175;51.978;5.330;2023-02-10T04:21:30;0.00;99.90
14188;DHT22;7175;51.978;5.330;2023-02-10T04:23:59;0.00;99.90
14188;DHT22;7175;51.978;5.330;2023-02-10T04:26:27;-0.10;99.90
14188;DHT22;7175;51.978;5.330;2023-02-10T04:28:56;-0.10;99.90
14188;DHT22;7175;51.978;5.330;2023-02-10T04:31:25;-0.10;99.90
14188;DHT22;7175;51.978;5.330;2023-02-10T04:33:53;-0.20;99.90
14188;DHT22;7175;51.978;5.330;2023-02-10T04:36:21;-0.10;99.90
14188;DHT22;7175;51.978;5.330;2023-02-10T04:38:49;-0.10;99.90
14188;DHT22;7175;51.978;5.330;2023-02-10T04:41:18;-0.10;99.90
14188;DHT22;7175;51.978;5.330;2023-02-10T04:43:46;-0.10;99.90
14188;DHT22;7175;51.978;5.330;2023-02-10T04:46:15;-0.10;99.90
14188;DHT22;7175;51.978;5.330;2023-02-10T04:48:43;-0.20;99.90
14188;DHT22;7175;51.978;5.330;2023-02-10T04:51:12;-0.10;99.90
14188;DHT22;7175;51.978;5.330;2023-02-10T04:53:41;-0.20;99.90
14188;DHT22;7175;51.978;5.330;2023-02-10T04:56:10;-0.20;99.90
14188;DHT22;7175;51.978;5.330;2023-02-10T04:58:39;-0.20;99.90
14188;DHT22;7175;51.978;5.330;2023-02-10T05:01:07;-0.20;99.90
14188;DHT22;7175;51.978;5.330;2023-02-10T05:03:37;-0.30;99.90
14188;DHT22;7175;51.978;5.330;2023-02-10T05:06:08;-0.20;99.90
14188;DHT22;7175;51.978;5.330;2023-02-10T05:08:36;-0.30;99.90
14188;DHT22;7175;51.978;5.330;2023-02-10T05:11:08;-0.20;99.90
14188;DHT22;7175;51.978;5.330;2023-02-10T05:13:36;-0.20;99.90
14188;DHT22;7175;51.978;5.330;2023-02-10T05:16:07;-0.10;99.90
14188;DHT22;7175;51.978;5.330;2023-02-10T05:18:37;0.00;99.90
14188;DHT22;7175;51.978;5.330;2023-02-10T05:21:07;-0.10;99.90
14188;DHT22;7175;51.978;5.330;2023-02-10T05:23:35;-0.20;99.90
14188;DHT22;7175;51.978;5.330;2023-02-10T05:26:04;-0.30;99.90
14188;DHT22;7175;51.978;5.330;2023-02-10T05:28:32;-0.20;99.90
14188;DHT22;7175;51.978;5.330;2023-02-10T05:31:01;-0.30;99.90
14188;DHT22;7175;51.978;5.330;2023-02-10T05:33:31;-0.30;99.90
14188;DHT22;7175;51.978;5.330;2023-02-10T05:36:02;-0.30;99.90
14188;DHT22;7175;51.978;5.330;2023-02-10T05:38:32;-0.20;99.90
14188;DHT22;7175;51.978;5.330;2023-02-10T05:41:00;-0.20;99.90
14188;DHT22;7175;51.978;5.330;2023-02-10T05:43:28;0.00;99.90
14188;DHT22;7175;51.978;5.330;2023-02-10T05:45:57;0.00;99.90
14188;DHT22;7175;51.978;5.330;2023-02-10T05:48:25;0.00;99.90
14188;DHT22;7175;51.978;5.330;2023-02-10T05:50:53;0.00;99.90
14188;DHT22;7175;51.978;5.330;2023-02-10T05:53:22;0.00;99.90
14188;DHT22;7175;51.978;5.330;2023-02-10T05:55:51;0.00;99.90
14188;DHT22;7175;51.978;5.330;2023-02-10T05:58:19;0.00;99.90
14188;DHT22;7175;51.978;5.330;2023-02-10T06:00:47;0.00;99.90
14188;DHT22;7175;51.978;5.330;2023-02-10T06:03:15;0.00;99.90
14188;DHT22;7175;51.978;5.330;2023-02-10T06:05:44;0.10;99.90
14188;DHT22;7175;51.978;5.330;2023-02-10T06:08:13;0.10;99.90
14188;DHT22;7175;51.978;5.330;2023-02-10T06:10:42;0.00;99.90
14188;DHT22;7175;51.978;5.330;2023-02-10T06:13:11;0.00;99.90
14188;DHT22;7175;51.978;5.330;2023-02-10T06:15:39;0.10;99.90
14188;DHT22;7175;51.978;5.330;2023-02-10T06:18:07;0.10;99.90
14188;DHT22;7175;51.978;5.330;2023-02-10T06:20:35;0.10;99.90
14188;DHT22;7175;51.978;5.330;2023-02-10T06:23:03;0.10;99.90
14188;DHT22;7175;51.978;5.330;2023-02-10T06:25:32;0.10;99.90
14188;DHT22;7175;51.978;5.330;2023-02-10T06:28:04;0.10;99.90
14188;DHT22;7175;51.978;5.330;2023-02-10T06:30:32;0.10;99.90
14188;DHT22;7175;51.978;5.330;2023-02-10T06:33:01;0.10;99.90
14188;DHT22;7175;51.978;5.330;2023-02-10T06:35:29;0.10;99.90
14188;DHT22;7175;51.978;5.330;2023-02-10T06:37:57;0.00;99.90
14188;DHT22;7175;51.978;5.330;2023-02-10T06:40:26;0.00;99.90
14188;DHT22;7175;51.978;5.330;2023-02-10T06:42:54;0.00;99.90
14188;DHT22;7175;51.978;5.330;2023-02-10T06:45:23;0.00;99.90
14188;DHT22;7175;51.978;5.330;2023-02-10T06:47:51;0.00;99.90
14188;DHT22;7175;51.978;5.330;2023-02-10T06:50:20;0.00;99.90
14188;DHT22;7175;51.978;5.330;2023-02-10T06:52:48;0.00;99.90
14188;DHT22;7175;51.978;5.330;2023-02-10T06:55:17;0.00;99.90
14188;DHT22;7175;51.978;5.330;2023-02-10T06:57:45;0.00;99.90
14188;DHT22;7175;51.978;5.330;2023-02-10T07:00:14;0.00;99.90
14188;DHT22;7175;51.978;5.330;2023-02-10T07:02:44;0.00;99.90
14188;DHT22;7175;51.978;5.330;2023-02-10T07:05:15;0.00;99.90
14188;DHT22;7175;51.978;5.330;2023-02-10T07:07:44;0.00;99.90
14188;DHT22;7175;51.978;5.330;2023-02-10T07:10:12;0.00;99.90
14188;DHT22;7175;51.978;5.330;2023-02-10T07:12:40;0.00;99.90
14188;DHT22;7175;51.978;5.330;2023-02-10T07:15:09;0.00;99.90
14188;DHT22;7175;51.978;5.330;2023-02-10T07:17:37;0.00;99.90
14188;DHT22;7175;51.978;5.330;2023-02-10T07:20:08;0.00;99.90
14188;DHT22;7175;51.978;5.330;2023-02-10T07:22:36;0.00;99.90
14188;DHT22;7175;51.978;5.330;2023-02-10T07:25:05;0.00;99.90
14188;DHT22;7175;51.978;5.330;2023-02-10T07:27:33;0.10;99.90
14188;DHT22;7175;51.978;5.330;2023-02-10T07:30:01;0.10;99.90
14188;DHT22;7175;51.978;5.330;2023-02-10T07:32:30;0.10;99.90
14188;DHT22;7175;51.978;5.330;2023-02-10T07:34:58;0.20;99.90
14188;DHT22;7175;51.978;5.330;2023-02-10T07:37:27;0.20;99.90
14188;DHT22;7175;51.978;5.330;2023-02-10T07:39:55;0.20;99.90
14188;DHT22;7175;51.978;5.330;2023-02-10T07:42:23;0.30;99.90
14188;DHT22;7175;51.978;5.330;2023-02-10T07:44:52;0.30;99.90
14188;DHT22;7175;51.978;5.330;2023-02-10T07:47:20;0.30;99.90
14188;DHT22;7175;51.978;5.330;2023-02-10T07:49:48;0.30;99.90
14188;DHT22;7175;51.978;5.330;2023-02-10T07:52:17;0.40;99.90
14188;DHT22;7175;51.978;5.330;2023-02-10T07:54:47;0.40;99.90
14188;DHT22;7175;51.978;5.330;2023-02-10T07:57:15;0.40;99.90
14188;DHT22;7175;51.978;5.330;2023-02-10T07:59:43;0.40;99.90
14188;DHT22;7175;51.978;5.330;2023-02-10T08:02:11;0.40;99.90
14188;DHT22;7175;51.978;5.330;2023-02-10T08:04:39;0.40;99.90
14188;DHT22;7175;51.978;5.330;2023-02-10T08:07:07;0.50;99.90
14188;DHT22;7175;51.978;5.330;2023-02-10T08:09:36;0.50;99.90
14188;DHT22;7175;51.978;5.330;2023-02-10T08:12:06;0.50;99.90
14188;DHT22;7175;51.978;5.330;2023-02-10T08:14:34;0.50;99.90
14188;DHT22;7175;51.978;5.330;2023-02-10T08:17:02;0.50;99.90
14188;DHT22;7175;51.978;5.330;2023-02-10T08:19:33;0.50;99.90
14188;DHT22;7175;51.978;5.330;2023-02-10T08:22:04;0.50;99.90
14188;DHT22;7175;51.978;5.330;2023-02-10T08:24:32;0.50;99.90
14188;DHT22;7175;51.978;5.330;2023-02-10T08:27:00;0.60;99.90
14188;DHT22;7175;51.978;5.330;2023-02-10T08:29:29;0.60;99.90
14188;DHT22;7175;51.978;5.330;2023-02-10T08:31:58;0.60;99.90
14188;DHT22;7175;51.978;5.330;2023-02-10T08:34:26;0.70;99.90
14188;DHT22;7175;51.978;5.330;2023-02-10T08:36:54;0.70;99.90
14188;DHT22;7175;51.978;5.330;2023-02-10T08:39:22;0.70;99.90
14188;DHT22;7175;51.978;5.330;2023-02-10T08:41:50;0.70;99.90
14188;DHT22;7175;51.978;5.330;2023-02-10T08:44:18;0.80;99.90
14188;DHT22;7175;51.978;5.330;2023-02-10T08:46:47;0.80;99.90
14188;DHT22;7175;51.978;5.330;2023-02-10T08:49:16;0.80;99.90
14188;DHT22;7175;51.978;5.330;2023-02-10T08:51:44;0.90;99.90
14188;DHT22;7175;51.978;5.330;2023-02-10T08:54:12;1.00;99.90
14188;DHT22;7175;51.978;5.330;2023-02-10T08:56:40;1.00;99.90
14188;DHT22;7175;51.978;5.330;2023-02-10T08:59:08;1.10;99.90
14188;DHT22;7175;51.978;5.330;2023-02-10T09:01:37;1.30;99.90
14188;DHT22;7175;51.978;5.330;2023-02-10T09:04:07;1.40;99.90
14188;DHT22;7175;51.978;5.330;2023-02-10T09:06:37;1.40;99.90
14188;DHT22;7175;51.978;5.330;2023-02-10T09:09:06;1.50;99.90
14188;DHT22;7175;51.978;5.330;2023-02-10T09:11:34;1.70;99.90
14188;DHT22;7175;51.978;5.330;2023-02-10T09:14:03;1.70;99.90
14188;DHT22;7175;51.978;5.330;2023-02-10T09:16:31;1.80;99.90
14188;DHT22;7175;51.978;5.330;2023-02-10T09:18:59;1.80;99.90
14188;DHT22;7175;51.978;5.330;2023-02-10T09:21:29;1.90;99.90
14188;DHT22;7175;51.978;5.330;2023-02-10T09:24:12;1.90;99.90
14188;DHT22;7175;51.978;5.330;2023-02-10T09:26:40;2.00;99.90
14188;DHT22;7175;51.978;5.330;2023-02-10T09:29:08;2.10;99.90
14188;DHT22;7175;51.978;5.330;2023-02-10T09:31:37;2.20;99.90
14188;DHT22;7175;51.978;5.330;2023-02-10T09:34:05;2.20;99.90
14188;DHT22;7175;51.978;5.330;2023-02-10T09:36:35;2.40;99.90
14188;DHT22;7175;51.978;5.330;2023-02-10T09:39:03;2.50;99.90
14188;DHT22;7175;51.978;5.330;2023-02-10T09:41:42;2.60;99.90
14188;DHT22;7175;51.978;5.330;2023-02-10T09:44:16;2.70;99.90
14188;DHT22;7175;51.978;5.330;2023-02-10T09:47:15;2.80;99.90
14188;DHT22;7175;51.978;5.330;2023-02-10T09:49:57;2.80;99.90
14188;DHT22;7175;51.978;5.330;2023-02-10T09:52:41;3.00;99.90
14188;DHT22;7175;51.978;5.330;2023-02-10T09:55:16;3.00;99.90
14188;DHT22;7175;51.978;5.330;2023-02-10T09:57:52;3.10;99.90
14188;DHT22;7175;51.978;5.330;2023-02-10T10:00:26;3.30;99.90
14188;DHT22;7175;51.978;5.330;2023-02-10T10:02:56;3.30;99.90
14188;DHT22;7175;51.978;5.330;2023-02-10T10:05:38;3.50;99.90
14188;DHT22;7175;51.978;5.330;2023-02-10T10:08:17;3.50;99.90
14188;DHT22;7175;51.978;5.330;2023-02-10T10:10:49;3.60;99.90
14188;DHT22;7175;51.978;5.330;2023-02-10T10:13:22;3.70;99.90
14188;DHT22;7175;51.978;5.330;2023-02-10T10:16:03;3.80;99.90
14188;DHT22;7175;51.978;5.330;2023-02-10T10:18:41;3.80;99.90
14188;DHT22;7175;51.978;5.330;2023-02-10T10:21:19;3.90;99.90
14188;DHT22;7175;51.978;5.330;2023-02-10T10:24:03;3.80;99.90
14188;DHT22;7175;51.978;5.330;2023-02-10T10:26:48;4.10;99.90
14188;DHT22;7175;51.978;5.330;2023-02-10T10:29:23;4.10;99.90
14188;DHT22;7175;51.978;5.330;2023-02-10T10:32:01;4.20;99.90
14188;DHT22;7175;51.978;5.330;2023-02-10T10:34:37;4.30;99.90
14188;DHT22;7175;51.978;5.330;2023-02-10T10:37:12;4.60;99.90
14188;DHT22;7175;51.978;5.330;2023-02-10T10:39:45;4.60;99.90
14188;DHT22;7175;51.978;5.330;2023-02-10T10:42:21;4.80;99.90
14188;DHT22;7175;51.978;5.330;2023-02-10T10:44:55;4.90;99.90
14188;DHT22;7175;51.978;5.330;2023-02-10T10:47:33;4.90;99.90
14188;DHT22;7175;51.978;5.330;2023-02-10T10:50:04;5.10;99.90
14188;DHT22;7175;51.978;5.330;2023-02-10T10:52:34;5.10;99.90
14188;DHT22;7175;51.978;5.330;2023-02-10T10:55:10;5.20;99.90
14188;DHT22;7175;51.978;5.330;2023-02-10T10:57:40;5.40;99.90
14188;DHT22;7175;51.978;5.330;2023-02-10T11:00:17;5.50;99.90
14188;DHT22;7175;51.978;5.330;2023-02-10T11:02:56;5.60;99.90
14188;DHT22;7175;51.978;5.330;2023-02-10T11:05:31;5.70;99.90
14188;DHT22;7175;51.978;5.330;2023-02-10T11:08:00;5.90;99.90
14188;DHT22;7175;51.978;5.330;2023-02-10T11:10:35;6.00;99.90
14188;DHT22;7175;51.978;5.330;2023-02-10T11:13:05;6.10;99.90
14188;DHT22;7175;51.978;5.330;2023-02-10T11:15:38;6.30;99.90
14188;DHT22;7175;51.978;5.330;2023-02-10T11:18:16;6.30;99.90
14188;DHT22;7175;51.978;5.330;2023-02-10T11:20:54;6.40;99.90
14188;DHT22;7175;51.978;5.330;2023-02-10T11:23:22;6.40;99.90
14188;DHT22;7175;51.978;5.330;2023-02-10T11:25:58;6.50;99.90
14188;DHT22;7175;51.978;5.330;2023-02-10T11:28:29;6.60;99.90
14188;DHT22;7175;51.978;5.330;2023-02-10T11:31:00;6.70;99.90
14188;DHT22;7175;51.978;5.330;2023-02-10T11:33:31;7.00;99.90
14188;DHT22;7175;51.978;5.330;2023-02-10T11:36:04;7.00;99.90
14188;DHT22;7175;51.978;5.330;2023-02-10T11:38:34;7.00;99.90
14188;DHT22;7175;51.978;5.330;2023-02-10T11:41:05;6.90;99.90
14188;DHT22;7175;51.978;5.330;2023-02-10T11:43:39;7.10;99.90
14188;DHT22;7175;51.978;5.330;2023-02-10T11:46:19;7.30;99.90
14188;DHT22;7175;51.978;5.330;2023-02-10T11:48:53;7.30;99.90
14188;DHT22;7175;51.978;5.330;2023-02-10T11:51:21;7.40;99.90
14188;DHT22;7175;51.978;5.330;2023-02-10T11:53:49;7.40;99.90
14188;DHT22;7175;51.978;5.330;2023-02-10T11:56:22;7.50;99.90
14188;DHT22;7175;51.978;5.330;2023-02-10T11:59:20;7.50;99.90
14188;DHT22;7175;51.978;5.330;2023-02-10T12:01:52;7.60;99.90
14188;DHT22;7175;51.978;5.330;2023-02-10T12:07:39;7.80;99.90
14188;DHT22;7175;51.978;5.330;2023-02-10T12:10:17;7.90;99.90
14188;DHT22;7175;51.978;5.330;2023-02-10T12:12:53;8.10;99.90
14188;DHT22;7175;51.978;5.330;2023-02-10T12:15:32;8.20;99.90
14188;DHT22;7175;51.978;5.330;2023-02-10T12:18:17;8.30;99.90
14188;DHT22;7175;51.978;5.330;2023-02-10T12:20:55;8.20;99.90
14188;DHT22;7175;51.978;5.330;2023-02-10T12:23:41;8.30;99.90
14188;DHT22;7175;51.978;5.330;2023-02-10T12:26:15;8.30;99.90
14188;DHT22;7175;51.978;5.330;2023-02-10T12:28:57;8.50;99.90
14188;DHT22;7175;51.978;5.330;2023-02-10T12:31:37;8.60;99.90
14188;DHT22;7175;51.978;5.330;2023-02-10T12:34:18;8.50;99.90
14188;DHT22;7175;51.978;5.330;2023-02-10T12:36:54;8.50;99.90
14188;DHT22;7175;51.978;5.330;2023-02-10T12:39:29;8.10;99.90
14188;DHT22;7175;51.978;5.330;2023-02-10T12:42:11;8.20;99.90
14188;DHT22;7175;51.978;5.330;2023-02-10T12:44:48;8.30;99.90
14188;DHT22;7175;51.978;5.330;2023-02-10T12:47:27;8.50;99.90
14188;DHT22;7175;51.978;5.330;2023-02-10T12:53:04;9.00;99.90
14188;DHT22;7175;51.978;5.330;2023-02-10T12:55:43;9.20;99.90
14188;DHT22;7175;51.978;5.330;2023-02-10T12:58:15;9.20;99.90
14188;DHT22;7175;51.978;5.330;2023-02-10T13:00:50;9.30;99.90
14188;DHT22;7175;51.978;5.330;2023-02-10T13:03:22;9.10;99.90
14188;DHT22;7175;51.978;5.330;2023-02-10T13:05:55;9.10;99.90
14188;DHT22;7175;51.978;5.330;2023-02-10T13:08:30;9.00;99.90
14188;DHT22;7175;51.978;5.330;2023-02-10T13:11:05;8.90;99.90
14188;DHT22;7175;51.978;5.330;2023-02-10T13:13:36;9.10;99.90
14188;DHT22;7175;51.978;5.330;2023-02-10T13:16:12;9.10;99.90
14188;DHT22;7175;51.978;5.330;2023-02-10T13:18:47;8.90;99.90
14188;DHT22;7175;51.978;5.330;2023-02-10T13:21:22;8.70;99.90
14188;DHT22;7175;51.978;5.330;2023-02-10T13:23:55;8.80;99.90
14188;DHT22;7175;51.978;5.330;2023-02-10T13:26:41;8.80;99.90
14188;DHT22;7175;51.978;5.330;2023-02-10T13:29:20;8.90;99.90
14188;DHT22;7175;51.978;5.330;2023-02-10T13:32:12;8.80;99.90
14188;DHT22;7175;51.978;5.330;2023-02-10T13:34:44;9.00;99.90
14188;DHT22;7175;51.978;5.330;2023-02-10T13:37:18;9.10;99.90
14188;DHT22;7175;51.978;5.330;2023-02-10T13:39:50;9.20;99.90
14188;DHT22;7175;51.978;5.330;2023-02-10T13:42:23;9.20;99.90
14188;DHT22;7175;51.978;5.330;2023-02-10T13:45:01;9.30;99.90
14188;DHT22;7175;51.978;5.330;2023-02-10T13:47:37;9.20;99.90
14188;DHT22;7175;51.978;5.330;2023-02-10T13:50:17;9.20;99.90
14188;DHT22;7175;51.978;5.330;2023-02-10T13:52:52;9.00;99.90
14188;DHT22;7175;51.978;5.330;2023-02-10T13:58:30;9.00;99.90
14188;DHT22;7175;51.978;5.330;2023-02-10T14:01:01;8.90;99.90
14188;DHT22;7175;51.978;5.330;2023-02-10T14:03:31;8.90;99.90
14188;DHT22;7175;51.978;5.330;2023-02-10T14:06:02;8.80;99.90
14188;DHT22;7175;51.978;5.330;2023-02-10T14:08:35;8.70;99.90
14188;DHT22;7175;51.978;5.330;2023-02-10T14:11:29;8.70;99.90
14188;DHT22;7175;51.978;5.330;2023-02-10T14:14:04;8.60;99.90
14188;DHT22;7175;51.978;5.330;2023-02-10T14:16:45;8.60;99.90
14188;DHT22;7175;51.978;5.330;2023-02-10T14:19:23;8.50;99.90
14188;DHT22;7175;51.978;5.330;2023-02-10T14:21:52;8.50;99.90
14188;DHT22;7175;51.978;5.330;2023-02-10T14:24:24;8.50;99.90
14188;DHT22;7175;51.978;5.330;2023-02-10T14:27:01;8.50;99.90
14188;DHT22;7175;51.978;5.330;2023-02-10T14:29:33;8.50;99.90
14188;DHT22;7175;51.978;5.330;2023-02-10T14:32:03;8.50;99.90
14188;DHT22;7175;51.978;5.330;2023-02-10T14:34:35;8.50;99.90
14188;DHT22;7175;51.978;5.330;2023-02-10T14:37:14;8.40;99.90
14188;DHT22;7175;51.978;5.330;2023-02-10T14:39:49;8.40;99.90
14188;DHT22;7175;51.978;5.330;2023-02-10T14:42:18;8.50;99.90
14188;DHT22;7175;51.978;5.330;2023-02-10T14:44:48;8.50;99.90
14188;DHT22;7175;51.978;5.330;2023-02-10T14:47:20;8.50;99.90
14188;DHT22;7175;51.978;5.330;2023-02-10T14:49:52;8.50;99.90
14188;DHT22;7175;51.978;5.330;2023-02-10T14:52:22;8.60;99.90
14188;DHT22;7175;51.978;5.330;2023-02-10T14:55:22;8.60;99.90
14188;DHT22;7175;51.978;5.330;2023-02-10T14:57:51;8.70;99.90
14188;DHT22;7175;51.978;5.330;2023-02-10T15:00:20;8.70;99.90
14188;DHT22;7175;51.978;5.330;2023-02-10T15:02:53;8.60;99.90
14188;DHT22;7175;51.978;5.330;2023-02-10T15:05:26;8.60;99.90
14188;DHT22;7175;51.978;5.330;2023-02-10T15:07:56;8.50;99.90
14188;DHT22;7175;51.978;5.330;2023-02-10T15:10:29;8.50;99.90
14188;DHT22;7175;51.978;5.330;2023-02-10T15:12:58;8.50;99.90
14188;DHT22;7175;51.978;5.330;2023-02-10T15:15:29;8.40;99.90
14188;DHT22;7175;51.978;5.330;2023-02-10T15:18:02;8.30;99.90
14188;DHT22;7175;51.978;5.330;2023-02-10T15:20:34;8.20;99.90
14188;DHT22;7175;51.978;5.330;2023-02-10T15:23:13;8.20;99.90
14188;DHT22;7175;51.978;5.330;2023-02-10T15:26:05;8.10;99.90
14188;DHT22;7175;51.978;5.330;2023-02-10T15:28:35;8.00;99.90
14188;DHT22;7175;51.978;5.330;2023-02-10T15:31:05;7.90;99.90
14188;DHT22;7175;51.978;5.330;2023-02-10T15:33:36;7.80;99.90
14188;DHT22;7175;51.978;5.330;2023-02-10T15:36:17;7.80;99.90
14188;DHT22;7175;51.978;5.330;2023-02-10T15:38:50;7.80;99.90
14188;DHT22;7175;51.978;5.330;2023-02-10T15:41:39;7.70;99.90
14188;DHT22;7175;51.978;5.330;2023-02-10T15:44:30;7.70;99.90
14188;DHT22;7175;51.978;5.330;2023-02-10T15:47:19;7.70;99.90
14188;DHT22;7175;51.978;5.330;2023-02-10T15:49:52;7.60;99.90
14188;DHT22;7175;51.978;5.330;2023-02-10T15:52:24;7.60;99.90
14188;DHT22;7175;51.978;5.330;2023-02-10T15:54:56;7.60;99.90
14188;DHT22;7175;51.978;5.330;2023-02-10T15:57:25;7.60;99.90
14188;DHT22;7175;51.978;5.330;2023-02-10T15:59:55;7.60;99.90
14188;DHT22;7175;51.978;5.330;2023-02-10T16:02:23;7.50;99.90
14188;DHT22;7175;51.978;5.330;2023-02-10T16:04:53;7.60;99.90
14188;DHT22;7175;51.978;5.330;2023-02-10T16:07:24;7.50;99.90
14188;DHT22;7175;51.978;5.330;2023-02-10T16:09:53;7.50;99.90
14188;DHT22;7175;51.978;5.330;2023-02-10T16:12:23;7.50;99.90
14188;DHT22;7175;51.978;5.330;2023-02-10T16:14:51;7.50;99.90
14188;DHT22;7175;51.978;5.330;2023-02-10T16:17:23;7.50;99.90
14188;DHT22;7175;51.978;5.330;2023-02-10T16:19:52;7.50;99.90
14188;DHT22;7175;51.978;5.330;2023-02-10T16:22:21;7.40;99.90
14188;DHT22;7175;51.978;5.330;2023-02-10T16:24:50;7.40;99.90
14188;DHT22;7175;51.978;5.330;2023-02-10T16:27:19;7.40;99.90
14188;DHT22;7175;51.978;5.330;2023-02-10T16:29:47;7.40;99.90
14188;DHT22;7175;51.978;5.330;2023-02-10T16:32:15;7.30;99.90
14188;DHT22;7175;51.978;5.330;2023-02-10T16:34:43;7.30;99.90
14188;DHT22;7175;51.978;5.330;2023-02-10T16:37:18;7.30;99.90
14188;DHT22;7175;51.978;5.330;2023-02-10T16:39:48;7.20;99.90